createdAt,value
2019-05-02T00:00:40.992Z,0.00
2019-05-02T00:01:40.981Z,0.00
2019-05-02T00:02:40.975Z,0.00
2019-05-02T00:03:42.799Z,0.00
2019-05-02T00:04:40.950Z,0.00
2019-05-02T00:05:40.961Z,0.00
2019-05-02T00:06:42.887Z,0.00
2019-05-02T00:07:40.918Z,0.00
2019-05-02T00:08:40.916Z,0.00
2019-05-02T00:09:47.415Z,0.00
2019-05-02T00:10:41.887Z,0.00
2019-05-02T00:11:40.881Z,0.00
2019-05-02T00:12:40.864Z,0.00
2019-05-02T00:13:40.860Z,0.00
2019-05-02T00:14:40.862Z,0.00
2019-05-02T00:15:40.840Z,0.00
2019-05-02T00:16:45.032Z,0.00
2019-05-02T00:17:41.807Z,0.00
2019-05-02T00:18:40.800Z,0.00
2019-05-02T00:19:45.218Z,0.00
2019-05-02T00:20:41.778Z,0.00
2019-05-02T00:21:43.101Z,0.00
2019-05-02T00:22:40.757Z,0.00
2019-05-02T00:23:40.747Z,0.00
2019-05-02T00:24:41.089Z,0.00
2019-05-02T00:25:40.733Z,0.00
2019-05-02T00:26:40.717Z,0.00
2019-05-02T00:27:40.715Z,0.00
2019-05-02T00:28:42.958Z,0.00
2019-05-02T00:29:41.681Z,0.00
2019-05-02T00:30:40.668Z,0.00
2019-05-02T00:31:41.999Z,0.00
2019-05-02T00:32:41.647Z,0.00
2019-05-02T00:33:40.659Z,0.00
2019-05-02T00:34:40.625Z,0.00
2019-05-02T00:35:45.533Z,0.00
2019-05-02T00:36:41.605Z,0.00
2019-05-02T00:37:40.597Z,0.00
2019-05-02T00:38:40.592Z,0.00
2019-05-02T00:39:40.572Z,0.00
2019-05-02T00:40:40.562Z,0.00
2019-05-02T00:41:40.586Z,0.00
2019-05-02T00:42:40.542Z,0.00
2019-05-02T00:43:40.527Z,0.00
2019-05-02T00:44:42.068Z,0.00
2019-05-02T00:45:41.516Z,0.00
2019-05-02T00:46:40.500Z,0.00
2019-05-02T00:47:42.409Z,0.00
2019-05-02T00:48:41.473Z,0.00
2019-05-02T00:49:40.467Z,0.00
2019-05-02T00:50:44.962Z,0.00
2019-05-02T00:51:40.443Z,0.00
2019-05-02T00:52:40.431Z,0.00
2019-05-02T00:53:44.497Z,0.00
2019-05-02T00:54:41.423Z,0.00
2019-05-02T00:55:40.408Z,0.00
2019-05-02T00:56:44.005Z,0.00
2019-05-02T00:57:40.377Z,0.00
2019-05-02T00:58:40.368Z,0.00
2019-05-02T00:59:42.410Z,0.00
2019-05-02T01:00:40.368Z,0.00
2019-05-02T01:01:40.345Z,0.00
2019-05-02T01:02:41.721Z,0.00
2019-05-02T01:03:40.315Z,0.00
2019-05-02T01:04:40.305Z,0.00
2019-05-02T01:05:40.353Z,0.00
2019-05-02T01:06:54.807Z,0.00
2019-05-02T01:07:40.276Z,0.00
2019-05-02T01:08:40.259Z,0.00
2019-05-02T01:09:42.154Z,0.00
2019-05-02T01:10:41.246Z,0.00
2019-05-02T01:11:40.226Z,0.00
2019-05-02T01:12:44.310Z,0.00
2019-05-02T01:13:41.206Z,0.00
2019-05-02T01:14:40.203Z,0.00
2019-05-02T01:15:44.153Z,0.00
2019-05-02T01:16:40.172Z,0.00
2019-05-02T01:17:40.165Z,0.00
2019-05-02T01:18:41.293Z,0.00
2019-05-02T01:19:40.155Z,0.00
2019-05-02T01:20:40.142Z,0.00
2019-05-02T01:21:40.202Z,0.00
2019-05-02T01:22:40.109Z,0.00
2019-05-02T01:23:40.121Z,0.00
2019-05-02T01:24:41.675Z,0.00
2019-05-02T01:25:40.076Z,0.00
2019-05-02T01:26:40.066Z,0.00
2019-05-02T01:27:41.213Z,0.00
2019-05-02T01:28:40.042Z,0.00
2019-05-02T01:29:40.063Z,0.00
2019-05-02T01:30:42.346Z,0.00
2019-05-02T01:31:40.010Z,0.00
2019-05-02T01:32:40.001Z,0.00
2019-05-02T01:33:41.660Z,0.00
2019-05-02T01:34:39.979Z,0.00
2019-05-02T01:35:40.000Z,0.00
2019-05-02T01:36:41.057Z,0.00
2019-05-02T01:37:39.945Z,0.00
2019-05-02T01:38:39.938Z,0.00
2019-05-02T01:39:42.753Z,0.00
2019-05-02T01:40:39.923Z,0.00
2019-05-02T01:41:39.905Z,0.00
2019-05-02T01:42:44.249Z,0.00
2019-05-02T01:43:39.881Z,0.00
2019-05-02T01:44:39.872Z,0.00
2019-05-02T01:45:41.856Z,0.00
2019-05-02T01:46:39.858Z,0.00
2019-05-02T01:47:39.851Z,0.00
2019-05-02T01:48:45.058Z,0.00
2019-05-02T01:49:40.816Z,0.00
2019-05-02T01:50:39.867Z,0.00
2019-05-02T01:51:42.055Z,0.00
2019-05-02T01:52:40.809Z,0.00
2019-05-02T01:53:39.789Z,0.00
2019-05-02T01:54:40.766Z,0.00
2019-05-02T01:55:40.775Z,0.00
2019-05-02T01:56:39.740Z,0.00
2019-05-02T01:57:39.997Z,0.00
2019-05-02T01:58:39.720Z,0.00
2019-05-02T01:59:39.712Z,0.00
2019-05-02T02:00:40.858Z,0.00
2019-05-02T02:01:39.686Z,0.00
2019-05-02T02:02:39.677Z,0.00
2019-05-02T02:03:40.482Z,0.00
2019-05-02T02:04:40.655Z,0.00
2019-05-02T02:05:39.651Z,0.00
2019-05-02T02:06:43.418Z,0.00
2019-05-02T02:07:40.647Z,0.00
2019-05-02T02:08:39.610Z,0.00
2019-05-02T02:09:44.117Z,0.00
2019-05-02T02:10:43.602Z,0.00
2019-05-02T02:11:39.604Z,0.00
2019-05-02T02:12:41.216Z,0.00
2019-05-02T02:13:40.583Z,0.00
2019-05-02T02:14:39.554Z,0.00
2019-05-02T02:15:39.542Z,0.00
2019-05-02T02:16:40.468Z,0.00
2019-05-02T02:17:39.530Z,0.00
2019-05-02T02:18:39.501Z,0.00
2019-05-02T02:19:40.704Z,0.00
2019-05-02T02:20:39.481Z,0.00
2019-05-02T02:21:42.560Z,0.00
2019-05-02T02:22:41.119Z,0.00
2019-05-02T02:23:39.455Z,0.00
2019-05-02T02:24:39.437Z,0.00
2019-05-02T02:25:39.427Z,0.00
2019-05-02T02:26:39.443Z,0.00
2019-05-02T02:27:39.406Z,0.00
2019-05-02T02:28:39.401Z,0.00
2019-05-02T02:29:43.952Z,0.00
2019-05-02T02:30:40.374Z,0.00
2019-05-02T02:31:45.992Z,0.00
2019-05-02T02:32:40.363Z,0.00
2019-05-02T02:33:41.051Z,0.00
2019-05-02T02:34:40.338Z,0.00
2019-05-02T02:35:49.816Z,0.00
2019-05-02T02:36:40.343Z,0.00
2019-05-02T02:37:39.298Z,0.00
2019-05-02T02:38:39.293Z,0.00
2019-05-02T02:39:39.301Z,0.00
2019-05-02T02:40:39.269Z,0.00
2019-05-02T02:41:39.258Z,0.00
2019-05-02T02:42:39.245Z,0.00
2019-05-02T02:43:39.233Z,0.00
2019-05-02T02:44:39.935Z,0.00
2019-05-02T02:45:39.214Z,0.00
2019-05-02T02:46:40.066Z,0.00
2019-05-02T02:47:39.193Z,0.00
2019-05-02T02:48:40.559Z,0.00
2019-05-02T02:49:39.195Z,0.00
2019-05-02T02:50:43.136Z,0.00
2019-05-02T02:51:40.159Z,0.00
2019-05-02T02:52:44.453Z,0.00
2019-05-02T02:53:40.129Z,0.00
2019-05-02T02:54:43.518Z,0.00
2019-05-02T02:55:40.119Z,0.00
2019-05-02T02:56:40.402Z,0.00
2019-05-02T02:57:39.114Z,0.00
2019-05-02T02:58:45.503Z,0.00
2019-05-02T02:59:40.074Z,0.00
2019-05-02T03:00:41.391Z,0.00
2019-05-02T03:01:40.052Z,0.00
2019-05-02T03:02:47.827Z,0.00
2019-05-02T03:03:40.018Z,0.00
2019-05-02T03:04:44.227Z,0.00
2019-05-02T03:05:39.998Z,0.00
2019-05-02T03:06:44.962Z,0.00
2019-05-02T03:07:39.987Z,0.00
2019-05-02T03:08:46.397Z,0.00
2019-05-02T03:09:39.959Z,0.00
2019-05-02T03:10:39.930Z,0.00
2019-05-02T03:11:40.052Z,0.00
2019-05-02T03:12:41.439Z,0.00
2019-05-02T03:13:51.503Z,0.00
2019-05-02T03:14:40.927Z,0.00
2019-05-02T03:15:39.890Z,0.00
2019-05-02T03:16:45.969Z,0.00
2019-05-02T03:17:39.881Z,0.00
2019-05-02T03:18:40.729Z,0.00
2019-05-02T03:19:38.845Z,0.00
2019-05-02T03:20:40.648Z,0.00
2019-05-02T03:21:38.827Z,0.00
2019-05-02T03:22:41.943Z,0.00
2019-05-02T03:23:38.802Z,0.00
2019-05-02T03:24:44.053Z,0.00
2019-05-02T03:25:50.486Z,0.00
2019-05-02T03:26:39.786Z,0.00
2019-05-02T03:27:40.390Z,0.00
2019-05-02T03:28:38.754Z,0.00
2019-05-02T03:29:43.925Z,4.00
2019-05-02T03:30:39.732Z,4.00
2019-05-02T03:31:38.732Z,4.00
2019-05-02T03:32:38.829Z,0.00
2019-05-02T03:33:52.680Z,4.00
2019-05-02T03:34:51.990Z,4.00
2019-05-02T03:35:43.723Z,4.00
2019-05-02T03:36:39.675Z,8.00
2019-05-02T03:37:44.694Z,4.00
2019-05-02T03:38:39.641Z,8.00
2019-05-02T03:39:38.678Z,8.00
2019-05-02T03:40:41.098Z,8.00
2019-05-02T03:41:38.613Z,8.00
2019-05-02T03:42:44.550Z,12.00
2019-05-02T03:43:39.591Z,12.00
2019-05-02T03:44:38.577Z,16.00
2019-05-02T03:45:42.803Z,16.00
2019-05-02T03:46:38.557Z,16.00
2019-05-02T03:47:43.997Z,24.00
2019-05-02T03:48:39.598Z,24.00
2019-05-02T03:49:40.818Z,24.00
2019-05-02T03:50:39.510Z,28.00
2019-05-02T03:51:38.503Z,32.00
2019-05-02T03:52:43.993Z,32.00
2019-05-02T03:53:39.480Z,36.00
2019-05-02T03:54:49.022Z,40.00
2019-05-02T03:55:39.460Z,40.00
2019-05-02T03:56:38.448Z,44.00
2019-05-02T03:57:41.881Z,52.00
2019-05-02T03:58:38.435Z,56.00
2019-05-02T03:59:41.614Z,56.00
2019-05-02T04:00:38.411Z,64.00
2019-05-02T04:01:41.174Z,68.00
2019-05-02T04:02:38.392Z,72.00
2019-05-02T04:03:41.076Z,80.00
2019-05-02T04:04:39.362Z,84.00
2019-05-02T04:05:40.439Z,88.00
2019-05-02T04:06:38.346Z,92.00
2019-05-02T04:07:40.565Z,100.00
2019-05-02T04:08:38.318Z,104.00
2019-05-02T04:09:39.763Z,108.00
2019-05-02T04:10:38.302Z,112.00
2019-05-02T04:11:40.679Z,120.00
2019-05-02T04:12:38.307Z,128.00
2019-05-02T04:13:38.296Z,132.00
2019-05-02T04:14:38.921Z,136.00
2019-05-02T04:15:38.248Z,144.00
2019-05-02T04:16:38.238Z,144.00
2019-05-02T04:17:38.221Z,156.00
2019-05-02T04:18:38.220Z,156.00
2019-05-02T04:19:38.199Z,168.00
2019-05-02T04:20:43.515Z,172.00
2019-05-02T04:21:39.196Z,180.00
2019-05-02T04:22:42.702Z,188.00
2019-05-02T04:23:39.174Z,200.00
2019-05-02T04:24:38.169Z,208.00
2019-05-02T04:25:38.143Z,216.00
2019-05-02T04:26:38.124Z,224.00
2019-05-02T04:27:38.113Z,232.00
2019-05-02T04:28:38.121Z,240.00
2019-05-02T04:29:38.105Z,248.00
2019-05-02T04:30:38.082Z,256.00
2019-05-02T04:31:38.070Z,264.00
2019-05-02T04:32:38.059Z,268.00
2019-05-02T04:33:38.057Z,276.00
2019-05-02T04:34:38.036Z,284.00
2019-05-02T04:35:38.033Z,288.00
2019-05-02T04:36:38.015Z,292.00
2019-05-02T04:37:41.148Z,300.00
2019-05-02T04:38:47.464Z,308.00
2019-05-02T04:39:39.323Z,316.00
2019-05-02T04:40:41.717Z,324.00
2019-05-02T04:41:42.299Z,332.00
2019-05-02T04:42:39.300Z,336.00
2019-05-02T04:43:40.805Z,344.00
2019-05-02T04:44:44.387Z,352.00
2019-05-02T04:45:54.796Z,360.00
2019-05-02T04:46:38.968Z,368.00
2019-05-02T04:47:39.010Z,376.00
2019-05-02T04:48:43.774Z,380.00
2019-05-02T04:49:39.336Z,388.00
2019-05-02T04:50:38.004Z,396.00
2019-05-02T04:51:38.272Z,400.00
2019-05-02T04:52:47.242Z,408.00
2019-05-02T04:53:44.347Z,416.00
2019-05-02T04:54:39.105Z,428.00
2019-05-02T04:55:38.237Z,432.00
2019-05-02T04:56:42.089Z,440.00
2019-05-02T04:57:46.882Z,448.00
2019-05-02T04:58:40.659Z,456.00
2019-05-02T04:59:39.430Z,444.00
2019-05-02T05:00:39.199Z,452.00
2019-05-02T05:01:43.444Z,456.00
2019-05-02T05:02:39.989Z,464.00
2019-05-02T05:03:37.759Z,472.00
2019-05-02T05:04:42.465Z,476.00
2019-05-02T05:05:40.325Z,480.00
2019-05-02T05:06:40.749Z,488.00
2019-05-02T05:07:44.477Z,488.00
2019-05-02T05:08:41.562Z,492.00
2019-05-02T05:09:40.148Z,496.00
2019-05-02T05:10:41.498Z,504.00
2019-05-02T05:11:38.638Z,508.00
2019-05-02T05:12:41.691Z,516.00
2019-05-02T05:13:37.621Z,520.00
2019-05-02T05:14:42.767Z,528.00
2019-05-02T05:15:48.465Z,536.00
2019-05-02T05:16:40.129Z,544.00
2019-05-02T05:17:37.623Z,552.00
2019-05-02T05:18:37.955Z,552.00
2019-05-02T05:19:37.553Z,564.00
2019-05-02T05:20:38.554Z,568.00
2019-05-02T05:21:37.534Z,580.00
2019-05-02T05:22:44.304Z,588.00
2019-05-02T05:23:38.506Z,596.00
2019-05-02T05:24:40.665Z,600.00
2019-05-02T05:25:37.988Z,612.00
2019-05-02T05:26:41.006Z,616.00
2019-05-02T05:27:38.464Z,624.00
2019-05-02T05:28:42.671Z,636.00
2019-05-02T05:29:38.818Z,640.00
2019-05-02T05:30:44.926Z,648.00
2019-05-02T05:31:38.430Z,656.00
2019-05-02T05:32:37.608Z,664.00
2019-05-02T05:33:37.825Z,672.00
2019-05-02T05:34:37.953Z,680.00
2019-05-02T05:35:38.538Z,688.00
2019-05-02T05:36:37.583Z,696.00
2019-05-02T05:37:38.180Z,704.00
2019-05-02T05:38:40.440Z,716.00
2019-05-02T05:39:38.141Z,724.00
2019-05-02T05:40:37.657Z,736.00
2019-05-02T05:41:37.896Z,748.00
2019-05-02T05:42:37.898Z,760.00
2019-05-02T05:43:37.982Z,768.00
2019-05-02T05:44:37.525Z,780.00
2019-05-02T05:45:48.647Z,788.00
2019-05-02T05:46:42.420Z,792.00
2019-05-02T05:47:37.805Z,800.00
2019-05-02T05:48:40.797Z,808.00
2019-05-02T05:49:37.590Z,816.00
2019-05-02T05:50:41.253Z,824.00
2019-05-02T05:51:37.547Z,840.00
2019-05-02T05:52:38.693Z,852.00
2019-05-02T05:53:37.595Z,860.00
2019-05-02T05:54:39.547Z,864.00
2019-05-02T05:55:38.295Z,872.00
2019-05-02T05:56:42.971Z,880.00
2019-05-02T05:57:38.548Z,888.00
2019-05-02T05:58:39.858Z,896.00
2019-05-02T05:59:38.155Z,904.00
2019-05-02T06:00:38.021Z,920.00
2019-05-02T06:01:38.399Z,936.00
2019-05-02T06:02:50.814Z,952.00
2019-05-02T06:03:41.891Z,972.00
2019-05-02T06:04:38.785Z,988.00
2019-05-02T06:05:38.546Z,1008.00
2019-05-02T06:06:37.762Z,1020.00
2019-05-02T06:07:41.783Z,1024.00
2019-05-02T06:08:38.022Z,1032.00
2019-05-02T06:09:37.039Z,1040.00
2019-05-02T06:10:39.086Z,1040.00
2019-05-02T06:11:37.989Z,1048.00
2019-05-02T06:12:36.987Z,1052.00
2019-05-02T06:13:38.172Z,1048.00
2019-05-02T06:14:36.958Z,1060.00
2019-05-02T06:15:38.919Z,1080.00
2019-05-02T06:16:36.947Z,1088.00
2019-05-02T06:17:36.925Z,1088.00
2019-05-02T06:18:41.722Z,1088.00
2019-05-02T06:19:37.902Z,1100.00
2019-05-02T06:20:36.945Z,1112.00
2019-05-02T06:21:40.081Z,1124.00
2019-05-02T06:22:37.987Z,1140.00
2019-05-02T06:23:41.080Z,1160.00
2019-05-02T06:24:36.880Z,1172.00
2019-05-02T06:25:37.031Z,1204.00
2019-05-02T06:26:36.828Z,1252.00
2019-05-02T06:27:36.816Z,1344.00
2019-05-02T06:28:41.687Z,1516.00
2019-05-02T06:29:37.794Z,1824.00
2019-05-02T06:30:36.811Z,2168.00
2019-05-02T06:31:38.193Z,2516.00
2019-05-02T06:32:37.763Z,2688.00
2019-05-02T06:33:36.756Z,2508.00
2019-05-02T06:34:38.762Z,2188.00
2019-05-02T06:35:37.743Z,2012.00
2019-05-02T06:36:38.018Z,2092.00
2019-05-02T06:37:36.722Z,2256.00
2019-05-02T06:38:36.699Z,2372.00
2019-05-02T06:39:36.709Z,2400.00
2019-05-02T06:40:39.289Z,2456.00
2019-05-02T06:41:37.671Z,2360.00
2019-05-02T06:42:38.054Z,2304.00
2019-05-02T06:43:41.254Z,2280.00
2019-05-02T06:44:37.694Z,2236.00
2019-05-02T06:45:37.491Z,2180.00
2019-05-02T06:46:36.618Z,2160.00
2019-05-02T06:47:41.504Z,2204.00
2019-05-02T06:48:37.591Z,2204.00
2019-05-02T06:49:36.581Z,2176.00
2019-05-02T06:50:38.921Z,2100.00
2019-05-02T06:51:36.563Z,2156.00
2019-05-02T06:52:36.554Z,2392.00
2019-05-02T06:53:36.557Z,2512.00
2019-05-02T06:54:36.543Z,2452.00
2019-05-02T06:55:38.739Z,2324.00
2019-05-02T06:56:36.512Z,2132.00
2019-05-02T06:57:36.498Z,1792.00
2019-05-02T06:58:37.190Z,1624.00
2019-05-02T06:59:36.479Z,1672.00
2019-05-02T07:00:49.941Z,2040.00
2019-05-02T07:01:37.453Z,2272.00
2019-05-02T07:02:36.442Z,2356.00
2019-05-02T07:03:36.436Z,2376.00
2019-05-02T07:04:36.428Z,2388.00
2019-05-02T07:05:36.454Z,2268.00
2019-05-02T07:06:55.919Z,2220.00
2019-05-02T07:07:37.778Z,2352.00
2019-05-02T07:08:36.379Z,2756.00
2019-05-02T07:09:41.028Z,3052.00
2019-05-02T07:10:44.596Z,2628.00
2019-05-02T07:11:38.956Z,2284.00
2019-05-02T07:12:36.378Z,2124.00
2019-05-02T07:13:42.211Z,2136.00
2019-05-02T07:14:37.317Z,2056.00
2019-05-02T07:15:38.581Z,2072.00
2019-05-02T07:16:38.853Z,2044.00
2019-05-02T07:17:38.319Z,2320.00
2019-05-02T07:18:36.276Z,2288.00
2019-05-02T07:19:36.272Z,2420.00
2019-05-02T07:20:40.668Z,2456.00
2019-05-02T07:21:37.242Z,2328.00
2019-05-02T07:22:38.809Z,2228.00
2019-05-02T07:23:36.249Z,2192.00
2019-05-02T07:24:36.228Z,2212.00
2019-05-02T07:25:39.130Z,2260.00
2019-05-02T07:26:36.190Z,2320.00
2019-05-02T07:27:38.916Z,2364.00
2019-05-02T07:28:40.442Z,2396.00
2019-05-02T07:29:37.161Z,2336.00
2019-05-02T07:30:36.316Z,2560.00
2019-05-02T07:31:36.135Z,2632.00
2019-05-02T07:32:36.123Z,2720.00
2019-05-02T07:33:37.481Z,2544.00
2019-05-02T07:34:36.119Z,2460.00
2019-05-02T07:35:36.100Z,2440.00
2019-05-02T07:36:36.767Z,2216.00
2019-05-02T07:37:36.076Z,2432.00
2019-05-02T07:38:36.057Z,2472.00
2019-05-02T07:39:40.528Z,2496.00
2019-05-02T07:40:36.036Z,2576.00
2019-05-02T07:41:37.273Z,2652.00
2019-05-02T07:42:36.953Z,2684.00
2019-05-02T07:43:37.022Z,2640.00
2019-05-02T07:44:35.991Z,2668.00
2019-05-02T07:45:40.191Z,2720.00
2019-05-02T07:46:37.001Z,2764.00
2019-05-02T07:47:40.450Z,2796.00
2019-05-02T07:48:36.947Z,2812.00
2019-05-02T07:49:35.936Z,2844.00
2019-05-02T07:50:35.930Z,2896.00
2019-05-02T07:51:35.929Z,2928.00
2019-05-02T07:52:35.962Z,2972.00
2019-05-02T07:53:35.898Z,3028.00
2019-05-02T07:54:35.884Z,3104.00
2019-05-02T07:55:40.823Z,3192.00
2019-05-02T07:56:36.881Z,3296.00
2019-05-02T07:57:35.854Z,3400.00
2019-05-02T07:58:38.440Z,3540.00
2019-05-02T07:59:36.830Z,3680.00
2019-05-02T08:00:37.117Z,3908.00
2019-05-02T08:01:35.821Z,4344.00
2019-05-02T08:02:35.804Z,5492.00
2019-05-02T08:03:35.888Z,5796.00
2019-05-02T08:04:35.782Z,5724.00
2019-05-02T08:05:35.765Z,7048.00
2019-05-02T08:06:40.004Z,18944.00
2019-05-02T08:07:36.792Z,14304.00
2019-05-02T08:08:36.436Z,26560.00
2019-05-02T08:09:39.276Z,12340.00
2019-05-02T08:10:36.709Z,7324.00
2019-05-02T08:11:37.106Z,19616.00
2019-05-02T08:12:35.689Z,6720.00
2019-05-02T08:13:35.679Z,7072.00
2019-05-02T08:14:36.421Z,5504.00
2019-05-02T08:15:35.665Z,18176.00
2019-05-02T08:16:35.704Z,5704.00
2019-05-02T08:17:35.634Z,49984.00
2019-05-02T08:18:35.648Z,6964.00
2019-05-02T08:19:37.534Z,31616.00
2019-05-02T08:20:36.623Z,9360.00
2019-05-02T08:21:35.603Z,50176.00
2019-05-02T08:22:35.607Z,44128.00
2019-05-02T08:23:35.573Z,33056.00
2019-05-02T08:24:37.942Z,24864.00
2019-05-02T08:25:35.570Z,14944.00
2019-05-02T08:26:35.544Z,5676.00
2019-05-02T08:27:36.718Z,3152.00
2019-05-02T08:28:35.517Z,3136.00
2019-05-02T08:29:35.507Z,3144.00
2019-05-02T08:30:40.347Z,3164.00
2019-05-02T08:31:36.491Z,3188.00
2019-05-02T08:32:35.832Z,3224.00
2019-05-02T08:33:35.959Z,3324.00
2019-05-02T08:34:35.453Z,5756.00
2019-05-02T08:35:35.445Z,19296.00
2019-05-02T08:36:35.437Z,19456.00
2019-05-02T08:37:40.877Z,22336.00
2019-05-02T08:38:36.409Z,19680.00
2019-05-02T08:39:35.414Z,4484.00
2019-05-02T08:40:35.388Z,16864.00
2019-05-02T08:41:35.382Z,45504.00
2019-05-02T08:42:35.380Z,56320.00
2019-05-02T08:43:35.356Z,53056.00
2019-05-02T08:44:35.350Z,50432.00
2019-05-02T08:45:38.132Z,50368.00
2019-05-02T08:46:35.329Z,46016.00
2019-05-02T08:47:35.333Z,45280.00
2019-05-02T08:48:36.437Z,39424.00
2019-05-02T08:49:36.320Z,45088.00
2019-05-02T08:50:35.323Z,48736.00
2019-05-02T08:51:35.279Z,50112.00
2019-05-02T08:52:36.837Z,52832.00
2019-05-02T08:53:36.257Z,51296.00
2019-05-02T08:54:35.241Z,54528.00
2019-05-02T08:55:35.230Z,56000.00
2019-05-02T08:56:35.228Z,56480.00
2019-05-02T08:57:36.327Z,56192.00
2019-05-02T08:58:35.199Z,56928.00
2019-05-02T08:59:35.186Z,57888.00
2019-05-02T09:00:37.425Z,55232.00
2019-05-02T09:01:35.710Z,58432.00
2019-05-02T09:02:41.414Z,54624.00
2019-05-02T09:03:54.716Z,55072.00
2019-05-02T09:04:36.132Z,51968.00
2019-05-02T09:05:36.942Z,55552.00
2019-05-02T09:06:36.133Z,49888.00
2019-05-02T09:07:37.197Z,43776.00
2019-05-02T09:08:35.192Z,35040.00
2019-05-02T09:09:35.085Z,29792.00
2019-05-02T09:10:37.063Z,22816.00
2019-05-02T09:11:36.075Z,18848.00
2019-05-02T09:12:36.873Z,13768.00
2019-05-02T09:13:36.047Z,9928.00
2019-05-02T09:14:35.028Z,6456.00
2019-05-02T09:15:35.359Z,4632.00
2019-05-02T09:16:35.042Z,4660.00
2019-05-02T09:17:38.639Z,4712.00
2019-05-02T09:18:38.270Z,4808.00
2019-05-02T09:19:35.978Z,4940.00
2019-05-02T09:20:34.964Z,5240.00
2019-05-02T09:21:36.046Z,5568.00
2019-05-02T09:22:34.949Z,5504.00
2019-05-02T09:23:37.100Z,5576.00
2019-05-02T09:24:34.937Z,5940.00
2019-05-02T09:25:34.916Z,5332.00
2019-05-02T09:26:38.445Z,6648.00
2019-05-02T09:27:34.895Z,11672.00
2019-05-02T09:28:34.891Z,17024.00
2019-05-02T09:29:37.301Z,8268.00
2019-05-02T09:30:35.867Z,23008.00
2019-05-02T09:31:36.716Z,14220.00
2019-05-02T09:32:37.209Z,35584.00
2019-05-02T09:33:36.864Z,46592.00
2019-05-02T09:34:35.822Z,49824.00
2019-05-02T09:35:34.810Z,7820.00
2019-05-02T09:36:34.799Z,39488.00
2019-05-02T09:37:34.798Z,39392.00
2019-05-02T09:38:34.863Z,48064.00
2019-05-02T09:39:36.505Z,47264.00
2019-05-02T09:40:34.755Z,48256.00
2019-05-02T09:41:36.258Z,49248.00
2019-05-02T09:42:34.736Z,43552.00
2019-05-02T09:43:38.970Z,5840.00
2019-05-02T09:44:34.719Z,41568.00
2019-05-02T09:45:37.426Z,41984.00
2019-05-02T09:46:34.691Z,17504.00
2019-05-02T09:47:46.985Z,34304.00
2019-05-02T09:48:35.691Z,5832.00
2019-05-02T09:49:34.660Z,3700.00
2019-05-02T09:50:37.937Z,3376.00
2019-05-02T09:51:34.641Z,3752.00
2019-05-02T09:52:39.530Z,4800.00
2019-05-02T09:53:35.625Z,3504.00
2019-05-02T09:54:37.013Z,3996.00
2019-05-02T09:55:35.603Z,6408.00
2019-05-02T09:56:34.586Z,77216.00
2019-05-02T09:57:34.576Z,75136.00
2019-05-02T09:58:34.566Z,71712.00
2019-05-02T09:59:34.629Z,6508.00
2019-05-02T10:00:36.205Z,35264.00
2019-05-02T10:01:35.838Z,22496.00
2019-05-02T10:02:34.523Z,4780.00
2019-05-02T10:03:34.518Z,6440.00
2019-05-02T10:04:34.517Z,6480.00
2019-05-02T10:05:34.494Z,5704.00
2019-05-02T10:06:34.491Z,6092.00
2019-05-02T10:07:34.473Z,5476.00
2019-05-02T10:08:38.307Z,8948.00
2019-05-02T10:09:35.456Z,7948.00
2019-05-02T10:10:37.037Z,11316.00
2019-05-02T10:11:35.441Z,45536.00
2019-05-02T10:12:34.442Z,61984.00
2019-05-02T10:13:34.421Z,64992.00
2019-05-02T10:14:34.418Z,65472.00
2019-05-02T10:15:34.460Z,66304.00
2019-05-02T10:16:34.377Z,65792.00
2019-05-02T10:17:37.478Z,28352.00
2019-05-02T10:18:35.368Z,7048.00
2019-05-02T10:19:34.347Z,21472.00
2019-05-02T10:20:36.391Z,12856.00
2019-05-02T10:21:34.326Z,5176.00
2019-05-02T10:22:39.312Z,2828.00
2019-05-02T10:23:35.302Z,2272.00
2019-05-02T10:24:34.298Z,1968.00
2019-05-02T10:25:38.692Z,2032.00
2019-05-02T10:26:34.269Z,2456.00
2019-05-02T10:27:38.493Z,14364.00
2019-05-02T10:28:35.253Z,5688.00
2019-05-02T10:29:34.244Z,3364.00
2019-05-02T10:30:36.057Z,3092.00
2019-05-02T10:31:37.564Z,3216.00
2019-05-02T10:32:34.211Z,3300.00
2019-05-02T10:33:37.622Z,3324.00
2019-05-02T10:34:34.189Z,3100.00
2019-05-02T10:35:40.400Z,2264.00
2019-05-02T10:36:35.284Z,1968.00
2019-05-02T10:37:38.240Z,1872.00
2019-05-02T10:38:35.158Z,1824.00
2019-05-02T10:39:37.811Z,1772.00
2019-05-02T10:40:34.135Z,1880.00
2019-05-02T10:41:39.445Z,2124.00
2019-05-02T10:42:35.102Z,2704.00
2019-05-02T10:43:34.088Z,5156.00
2019-05-02T10:44:36.453Z,7104.00
2019-05-02T10:45:34.072Z,7744.00
2019-05-02T10:46:37.653Z,8180.00
2019-05-02T10:47:36.332Z,4808.00
2019-05-02T10:48:34.035Z,5548.00
2019-05-02T10:49:34.036Z,9960.00
2019-05-02T10:50:34.012Z,7320.00
2019-05-02T10:51:34.005Z,5156.00
2019-05-02T10:52:34.395Z,4736.00
2019-05-02T10:53:33.990Z,4904.00
2019-05-02T10:54:37.567Z,6472.00
2019-05-02T10:55:33.957Z,10672.00
2019-05-02T10:56:33.953Z,9620.00
2019-05-02T10:57:33.943Z,8856.00
2019-05-02T10:58:35.728Z,10228.00
2019-05-02T10:59:33.937Z,11596.00
2019-05-02T11:00:33.906Z,8968.00
2019-05-02T11:01:33.892Z,12284.00
2019-05-02T11:02:33.883Z,13160.00
2019-05-02T11:03:38.111Z,12156.00
2019-05-02T11:04:34.864Z,10744.00
2019-05-02T11:05:37.072Z,9408.00
2019-05-02T11:06:37.106Z,6828.00
2019-05-02T11:07:34.866Z,11360.00
2019-05-02T11:08:36.811Z,11228.00
2019-05-02T11:09:34.813Z,11056.00
2019-05-02T11:10:33.810Z,9720.00
2019-05-02T11:11:33.788Z,10032.00
2019-05-02T11:12:41.866Z,8560.00
2019-05-02T11:13:34.767Z,10680.00
2019-05-02T11:14:33.765Z,9816.00
2019-05-02T11:15:33.770Z,11252.00
2019-05-02T11:16:33.763Z,10648.00
2019-05-02T11:17:36.188Z,8408.00
2019-05-02T11:18:42.308Z,9584.00
2019-05-02T11:19:34.709Z,12336.00
2019-05-02T11:20:33.732Z,11824.00
2019-05-02T11:21:33.681Z,10900.00
2019-05-02T11:22:33.693Z,10272.00
2019-05-02T11:23:33.703Z,9796.00
2019-05-02T11:24:33.654Z,18240.00
2019-05-02T11:25:33.646Z,16224.00
2019-05-02T11:26:33.641Z,3068.00
2019-05-02T11:27:33.633Z,2264.00
2019-05-02T11:28:33.658Z,2020.00
2019-05-02T11:29:33.597Z,1880.00
2019-05-02T11:30:33.588Z,1996.00
2019-05-02T11:31:33.584Z,2088.00
2019-05-02T11:32:33.570Z,2020.00
2019-05-02T11:33:33.638Z,2088.00
2019-05-02T11:34:33.573Z,2428.00
2019-05-02T11:35:33.533Z,4088.00
2019-05-02T11:36:33.527Z,22464.00
2019-05-02T11:37:33.518Z,4768.00
2019-05-02T11:38:33.838Z,3912.00
2019-05-02T11:39:44.138Z,4028.00
2019-05-02T11:40:34.480Z,4300.00
2019-05-02T11:41:33.530Z,4684.00
2019-05-02T11:42:33.463Z,5060.00
2019-05-02T11:43:37.254Z,14400.00
2019-05-02T11:44:34.451Z,61440.00
2019-05-02T11:45:33.445Z,66464.00
2019-05-02T11:46:37.597Z,34240.00
2019-05-02T11:47:34.430Z,5588.00
2019-05-02T11:48:33.399Z,8476.00
2019-05-02T11:49:33.402Z,4980.00
2019-05-02T11:50:35.478Z,4192.00
2019-05-02T11:51:33.381Z,3852.00
2019-05-02T11:52:37.351Z,3576.00
2019-05-02T11:53:33.346Z,3312.00
2019-05-02T11:54:33.334Z,3280.00
2019-05-02T11:55:33.327Z,2996.00
2019-05-02T11:56:33.481Z,2884.00
2019-05-02T11:57:33.363Z,2936.00
2019-05-02T11:58:33.309Z,11676.00
2019-05-02T11:59:33.278Z,4168.00
2019-05-02T12:00:33.273Z,3744.00
2019-05-02T12:01:37.189Z,3684.00
2019-05-02T12:02:34.246Z,3344.00
2019-05-02T12:03:36.879Z,3032.00
2019-05-02T12:04:33.225Z,2812.00
2019-05-02T12:05:35.679Z,2864.00
2019-05-02T12:06:33.314Z,3592.00
2019-05-02T12:07:33.205Z,50496.00
2019-05-02T12:08:33.199Z,5240.00
2019-05-02T12:09:33.169Z,5088.00
2019-05-02T12:10:36.645Z,4976.00
2019-05-02T12:11:33.171Z,4368.00
2019-05-02T12:12:36.256Z,5688.00
2019-05-02T12:13:33.142Z,7304.00
2019-05-02T12:14:36.341Z,11508.00
2019-05-02T12:15:33.106Z,51616.00
2019-05-02T12:16:33.095Z,5980.00
2019-05-02T12:17:33.104Z,4868.00
2019-05-02T12:18:33.074Z,4216.00
2019-05-02T12:19:33.061Z,3576.00
2019-05-02T12:20:36.499Z,3232.00
2019-05-02T12:21:33.045Z,2712.00
2019-05-02T12:22:33.036Z,2304.00
2019-05-02T12:23:36.050Z,1928.00
2019-05-02T12:24:36.334Z,1676.00
2019-05-02T12:25:33.991Z,1508.00
2019-05-02T12:26:33.022Z,1404.00
2019-05-02T12:27:33.018Z,1328.00